createdAt,value
2018-09-06T00:01:46.505Z,100118.31
2018-09-06T00:06:50.180Z,100118.45
2018-09-06T00:11:53.933Z,100110.73
2018-09-06T00:16:57.564Z,100111.48
2018-09-06T00:22:01.179Z,100107.46
2018-09-06T00:27:05.263Z,100109.00
2018-09-06T00:32:09.030Z,100108.15
2018-09-06T00:37:12.675Z,100109.05
2018-09-06T00:42:16.310Z,100105.66
2018-09-06T00:47:20.035Z,100110.75
2018-09-06T00:52:23.873Z,100107.08
2018-09-06T00:57:27.535Z,100106.97
2018-09-06T01:02:31.238Z,100098.89
2018-09-06T01:07:34.891Z,100098.42
2018-09-06T01:12:38.509Z,100084.59
2018-09-06T01:17:42.148Z,100088.37
2018-09-06T01:22:45.851Z,100088.79
2018-09-06T01:27:49.505Z,100085.47
2018-09-06T01:32:53.168Z,100079.45
2018-09-06T01:37:57.039Z,100067.70
2018-09-06T01:43:00.784Z,100067.55
2018-09-06T01:48:04.440Z,100069.05
2018-09-06T01:53:08.059Z,100059.47
2018-09-06T01:58:12.250Z,100052.34
2018-09-06T02:03:15.964Z,100052.73
2018-09-06T02:08:19.567Z,100051.27
2018-09-06T02:13:23.190Z,100044.78
2018-09-06T02:18:26.836Z,100032.50
2018-09-06T02:23:30.707Z,100031.28
2018-09-06T02:28:34.388Z,100027.47
2018-09-06T02:33:38.094Z,100019.61
2018-09-06T02:38:41.714Z,100015.33
2018-09-06T02:43:45.310Z,100018.67
2018-09-06T02:48:49.023Z,100006.11
2018-09-06T02:53:52.683Z,100007.24
2018-09-06T02:58:56.344Z,100003.83
2018-09-06T03:03:59.978Z,100007.13
2018-09-06T03:09:05.122Z,99998.66
2018-09-06T03:14:09.446Z,100004.70
2018-09-06T03:19:13.081Z,100003.95
2018-09-06T03:24:16.741Z,100004.09
2018-09-06T03:29:20.393Z,99998.95
2018-09-06T03:34:24.077Z,99994.91
2018-09-06T03:39:27.701Z,99999.20
2018-09-06T03:44:31.348Z,99989.02
2018-09-06T03:49:34.985Z,99992.69
2018-09-06T03:54:38.635Z,99994.17
2018-09-06T03:59:42.230Z,99987.91
2018-09-06T04:04:45.866Z,99993.09
2018-09-06T04:09:49.499Z,99995.05
2018-09-06T04:14:53.150Z,99996.89
2018-09-06T04:19:56.787Z,99992.13
2018-09-06T04:25:00.372Z,99987.75
2018-09-06T04:30:04.891Z,99995.36
2018-09-06T04:35:08.533Z,99989.97
2018-09-06T04:40:12.179Z,99988.50
2018-09-06T04:45:15.815Z,99989.62
2018-09-06T04:50:19.510Z,99993.05
2018-09-06T04:55:23.241Z,99984.33
2018-09-06T05:00:26.928Z,99985.45
2018-09-06T05:05:30.562Z,99986.53
2018-09-06T05:10:34.204Z,99986.30
2018-09-06T05:15:37.841Z,99980.55
2018-09-06T05:20:41.452Z,99980.78
2018-09-06T05:25:45.059Z,99986.80
2018-09-06T05:30:48.729Z,99985.95
2018-09-06T05:35:52.288Z,99984.70
2018-09-06T05:40:55.981Z,99981.27
2018-09-06T05:45:59.665Z,99980.13
2018-09-06T05:51:03.297Z,99981.39
2018-09-06T05:56:07.061Z,99986.42
2018-09-06T06:01:10.723Z,99993.18
2018-09-06T06:06:14.391Z,99985.63
2018-09-06T06:11:18.881Z,99991.09
2018-09-06T06:16:22.562Z,99992.80
2018-09-06T06:21:26.186Z,99976.95
2018-09-06T06:26:29.797Z,99977.19
2018-09-06T06:31:33.441Z,99965.01
2018-09-06T06:36:37.092Z,99967.12
2018-09-06T06:41:41.157Z,99957.02
2018-09-06T06:46:44.769Z,99961.67
2018-09-06T06:51:48.474Z,99959.39
2018-09-06T06:56:52.118Z,99953.52
2018-09-06T07:01:55.710Z,99959.41
2018-09-06T07:06:59.400Z,99959.41
2018-09-06T07:12:02.947Z,99955.47
2018-09-06T07:17:06.889Z,99953.77
2018-09-06T07:22:10.501Z,99955.24
2018-09-06T07:27:14.122Z,99945.94
2018-09-06T07:32:17.747Z,99943.83
2018-09-06T07:37:21.470Z,99937.70
2018-09-06T07:42:25.320Z,99936.98
2018-09-06T07:47:28.930Z,99929.98
2018-09-06T07:52:32.769Z,99931.45
2018-09-06T07:57:36.754Z,99928.52
2018-09-06T08:02:40.430Z,99916.61
2018-09-06T08:07:44.029Z,99914.16
2018-09-06T08:12:47.661Z,99914.42
2018-09-06T08:17:51.234Z,99914.52
2018-09-06T08:22:54.945Z,99911.09
2018-09-06T08:27:58.575Z,99902.86
2018-09-06T08:33:02.251Z,99913.78
2018-09-06T08:38:05.880Z,99906.39
2018-09-06T08:43:09.587Z,99906.16
2018-09-06T08:48:13.189Z,99900.63
2018-09-06T08:53:16.856Z,99907.14
2018-09-06T08:58:20.861Z,99897.55
2018-09-06T09:03:24.500Z,99901.36
2018-09-06T09:08:28.162Z,99893.13
2018-09-06T09:13:31.926Z,99883.04
2018-09-06T09:18:35.540Z,99883.79
2018-09-06T09:23:39.232Z,99879.47
2018-09-06T09:28:42.940Z,99865.36
2018-09-06T09:33:46.794Z,99866.58
2018-09-06T09:38:50.490Z,99858.70
2018-09-06T09:43:54.225Z,99866.20
2018-09-06T09:48:57.885Z,99850.35
2018-09-06T09:54:01.558Z,99852.91
2018-09-06T09:59:05.261Z,99852.77
2018-09-06T10:04:14.182Z,99842.36
2018-09-06T10:09:21.017Z,99844.78
2018-09-06T10:14:24.769Z,99835.69
2018-09-06T10:19:28.456Z,99825.23
2018-09-06T10:24:32.107Z,99823.28
2018-09-06T10:29:36.022Z,99816.53
2018-09-06T10:34:39.615Z,99818.23
2018-09-06T10:39:43.205Z,99808.15
2018-09-06T10:44:46.889Z,99803.49
2018-09-06T10:49:50.547Z,99807.05
2018-09-06T10:54:54.178Z,99794.61
2018-09-06T10:59:58.028Z,99788.28
2018-09-06T11:05:02.235Z,99780.38
2018-09-06T11:10:06.133Z,99775.69
2018-09-06T11:15:09.786Z,99772.49
2018-09-06T11:20:13.433Z,99764.28
2018-09-06T11:25:17.142Z,99763.14
2018-09-06T11:30:20.764Z,99761.19
2018-09-06T11:35:24.371Z,99748.87
2018-09-06T11:40:28.122Z,99741.13
2018-09-06T11:45:31.752Z,99740.98
2018-09-06T11:50:35.450Z,99736.32
2018-09-06T11:55:39.109Z,99732.83
2018-09-06T12:00:44.413Z,99717.12
2018-09-06T12:05:48.077Z,99709.61
2018-09-06T12:10:51.814Z,99706.11
2018-09-06T12:15:55.522Z,99689.90
2018-09-06T12:20:59.256Z,99694.19
2018-09-06T12:26:02.897Z,99694.91
2018-09-06T12:31:06.622Z,99697.95
2018-09-06T12:36:10.256Z,99691.44
2018-09-06T12:41:13.878Z,99681.33
2018-09-06T12:46:17.530Z,99678.12
2018-09-06T12:51:21.184Z,99664.50
2018-09-06T12:56:24.812Z,99661.50
2018-09-06T13:01:28.489Z,99659.65
2018-09-06T13:06:32.201Z,99659.03
2018-09-06T13:11:36.306Z,99651.63
2018-09-06T13:16:39.947Z,99641.67
2018-09-06T13:21:43.562Z,99620.54
2018-09-06T13:26:47.413Z,99632.44
2018-09-06T13:31:51.031Z,99622.24
2018-09-06T13:36:54.673Z,99624.68
2018-09-06T13:41:58.298Z,99625.30
2018-09-06T13:47:01.968Z,99615.34
2018-09-06T13:52:05.762Z,99603.97
2018-09-06T13:57:09.426Z,99600.41
2018-09-06T14:02:13.088Z,99602.12
2018-09-06T14:07:16.691Z,99593.66
2018-09-06T14:12:20.247Z,99586.39
2018-09-06T14:17:24.013Z,99586.89
2018-09-06T14:22:27.911Z,99575.94
2018-09-06T14:27:31.723Z,99570.11
2018-09-06T14:32:35.414Z,99563.77
2018-09-06T14:37:39.005Z,99558.86
2018-09-06T14:42:42.627Z,99554.80
2018-09-06T14:47:46.321Z,99550.59
2018-09-06T14:52:50.087Z,99543.69
2018-09-06T14:57:53.718Z,99533.26
2018-09-06T15:02:57.382Z,99536.31
2018-09-06T15:08:01.058Z,99532.41
2018-09-06T15:13:04.697Z,99527.34
2018-09-06T15:18:08.299Z,99524.65
2018-09-06T15:23:11.966Z,99525.84
2018-09-06T15:28:15.746Z,99518.66
2018-09-06T15:33:19.373Z,99520.02
2018-09-06T15:38:23.050Z,99518.16
2018-09-06T15:43:26.754Z,99512.53
2018-09-06T15:48:30.359Z,99506.50
2018-09-06T15:53:33.982Z,99503.49
2018-09-06T15:58:37.647Z,99506.45
2018-09-06T16:03:41.259Z,99505.95
2018-09-06T16:08:44.920Z,99499.05
2018-09-06T16:13:48.514Z,99500.05
2018-09-06T16:18:52.164Z,99500.74
2018-09-06T16:23:55.859Z,99497.19
2018-09-06T16:28:59.441Z,99494.64
2018-09-06T16:34:03.089Z,99491.58
2018-09-06T16:39:08.776Z,99500.67
2018-09-06T16:44:12.420Z,99498.81
2018-09-06T16:49:16.015Z,99499.20
2018-09-06T16:54:19.759Z,99492.05
2018-09-06T16:59:23.476Z,99498.69
2018-09-06T17:04:27.092Z,99498.39
2018-09-06T17:09:30.751Z,99482.89
2018-09-06T17:14:34.390Z,99476.16
2018-09-06T17:19:37.989Z,99476.74
2018-09-06T17:24:41.801Z,99471.40
2018-09-06T17:29:45.489Z,99474.80
2018-09-06T17:34:49.049Z,99474.52
2018-09-06T17:39:52.702Z,99477.84
2018-09-06T17:44:56.369Z,99479.38
2018-09-06T17:50:00.230Z,99493.30
2018-09-06T17:55:04.192Z,99491.44
2018-09-06T18:00:07.960Z,99489.23
2018-09-06T18:05:11.737Z,99490.94
2018-09-06T18:10:15.331Z,99492.98
2018-09-06T18:15:19.150Z,99489.27
2018-09-06T18:20:22.815Z,99496.41
2018-09-06T18:25:26.640Z,99497.17
2018-09-06T18:30:30.953Z,99499.73
2018-09-06T18:35:34.715Z,99505.14
2018-09-06T18:40:38.399Z,99513.42
2018-09-06T18:45:42.052Z,99515.31
2018-09-06T18:50:45.800Z,99509.77
2018-09-06T18:55:49.404Z,99510.97
2018-09-06T19:00:53.010Z,99511.16
2018-09-06T19:05:56.693Z,99508.45
2018-09-06T19:11:00.503Z,99506.09
2018-09-06T19:16:04.238Z,99503.39
2018-09-06T19:21:07.847Z,99504.96
2018-09-06T19:26:11.572Z,99502.77
2018-09-06T19:31:15.280Z,99500.40
2018-09-06T19:36:18.985Z,99504.30
2018-09-06T19:41:22.625Z,99501.25
2018-09-06T19:46:26.228Z,99498.11
2018-09-06T19:51:29.892Z,99494.73
2018-09-06T19:56:33.520Z,99492.25
2018-09-06T20:01:37.288Z,99493.32
2018-09-06T20:06:41.052Z,99491.12
2018-09-06T20:11:44.693Z,99485.48
2018-09-06T20:16:48.385Z,99490.27
2018-09-06T20:21:52.017Z,99488.41
2018-09-06T20:26:55.680Z,99487.41
2018-09-06T20:31:59.284Z,99485.20
2018-09-06T20:37:03.107Z,99481.86
2018-09-06T20:42:06.809Z,99459.41
2018-09-06T20:47:10.488Z,99473.08
2018-09-06T20:52:14.122Z,99470.08
2018-09-06T20:57:18.034Z,99461.14
2018-09-06T21:02:22.111Z,99461.08
2018-09-06T21:07:27.809Z,99460.61
2018-09-06T21:12:31.900Z,99464.34
2018-09-06T21:17:35.523Z,99454.02
2018-09-06T21:22:39.205Z,99462.81
2018-09-06T21:27:42.867Z,99461.64
2018-09-06T21:32:46.531Z,99458.42
2018-09-06T21:37:50.303Z,99468.47
2018-09-06T21:42:53.918Z,99469.67
2018-09-06T21:47:57.998Z,99473.22
2018-09-06T21:53:01.682Z,99469.10
2018-09-06T21:58:05.538Z,99480.14
2018-09-06T22:03:14.285Z,99466.97
2018-09-06T22:08:24.231Z,99459.53
2018-09-06T22:13:27.842Z,99459.72
2018-09-06T22:18:31.905Z,99460.44
2018-09-06T22:23:35.556Z,99457.91
2018-09-06T22:28:39.202Z,99460.33
2018-09-06T22:33:42.903Z,99454.25
2018-09-06T22:38:46.771Z,99464.42
2018-09-06T22:43:50.405Z,99465.30
2018-09-06T22:48:54.282Z,99456.50
2018-09-06T22:53:58.047Z,99458.55
2018-09-06T22:59:01.970Z,99447.58
2018-09-06T23:04:06.107Z,99451.64
2018-09-06T23:09:10.038Z,99450.28
2018-09-06T23:14:13.703Z,99451.48
2018-09-06T23:19:17.556Z,99447.92
2018-09-06T23:24:21.446Z,99445.55
2018-09-06T23:29:25.048Z,99439.97
2018-09-06T23:34:32.863Z,99451.02
2018-09-06T23:39:36.475Z,99456.06
2018-09-06T23:44:40.128Z,99453.69
2018-09-06T23:49:43.780Z,99460.06
2018-09-06T23:54:47.467Z,99449.52
2018-09-06T23:59:51.126Z,99453.22
